sensor_id;sensor_type;location;lat;lon;timestamp;P1;durP1;ratioP1;P2;durP2;ratioP2
49153;SDS011;49455;52.252;9.124;2023-02-28T00:02:07;2.90;;;1.60;;
49153;SDS011;49455;52.252;9.124;2023-02-28T00:07:07;3.77;;;1.87;;
49153;SDS011;49455;52.252;9.124;2023-02-28T00:12:07;4.13;;;1.83;;
49153;SDS011;49455;52.252;9.124;2023-02-28T00:17:08;4.57;;;1.80;;
49153;SDS011;49455;52.252;9.124;2023-02-28T00:22:08;3.53;;;1.70;;
49153;SDS011;49455;52.252;9.124;2023-02-28T00:27:09;2.53;;;1.87;;
49153;SDS011;49455;52.252;9.124;2023-02-28T00:32:10;4.93;;;1.70;;
49153;SDS011;49455;52.252;9.124;2023-02-28T00:37:11;7.30;;;1.70;;
49153;SDS011;49455;52.252;9.124;2023-02-28T00:42:12;3.83;;;1.70;;
49153;SDS011;49455;52.252;9.124;2023-02-28T00:47:12;2.90;;;2.00;;
49153;SDS011;49455;52.252;9.124;2023-02-28T00:52:13;4.03;;;1.60;;
49153;SDS011;49455;52.252;9.124;2023-02-28T00:57:13;3.27;;;1.80;;
49153;SDS011;49455;52.252;9.124;2023-02-28T01:02:14;3.27;;;1.80;;
49153;SDS011;49455;52.252;9.124;2023-02-28T01:07:14;6.43;;;1.90;;
49153;SDS011;49455;52.252;9.124;2023-02-28T01:12:15;6.30;;;1.87;;
49153;SDS011;49455;52.252;9.124;2023-02-28T01:17:16;3.13;;;1.70;;
49153;SDS011;49455;52.252;9.124;2023-02-28T01:22:16;3.60;;;1.53;;
49153;SDS011;49455;52.252;9.124;2023-02-28T01:27:16;3.77;;;1.50;;
49153;SDS011;49455;52.252;9.124;2023-02-28T01:32:17;4.80;;;1.70;;
49153;SDS011;49455;52.252;9.124;2023-02-28T01:37:17;2.23;;;1.47;;
49153;SDS011;49455;52.252;9.124;2023-02-28T01:42:18;4.37;;;1.53;;
49153;SDS011;49455;52.252;9.124;2023-02-28T01:47:18;2.07;;;1.43;;
49153;SDS011;49455;52.252;9.124;2023-02-28T01:52:19;2.80;;;1.57;;
49153;SDS011;49455;52.252;9.124;2023-02-28T01:57:21;2.80;;;1.30;;
49153;SDS011;49455;52.252;9.124;2023-02-28T02:02:25;2.08;;;1.35;;
49153;SDS011;49455;52.252;9.124;2023-02-28T02:12:37;1.95;;;1.30;;
49153;SDS011;49455;52.252;9.124;2023-02-28T02:17:52;6.95;;;1.83;;
49153;SDS011;49455;52.252;9.124;2023-02-28T02:28:46;2.78;;;0.95;;
49153;SDS011;49455;52.252;9.124;2023-02-28T02:39:30;3.30;;;1.52;;
49153;SDS011;49455;52.252;9.124;2023-02-28T02:44:50;1.55;;;1.10;;
49153;SDS011;49455;52.252;9.124;2023-02-28T02:49:59;2.03;;;1.27;;
49153;SDS011;49455;52.252;9.124;2023-02-28T02:55:05;2.25;;;1.48;;
49153;SDS011;49455;52.252;9.124;2023-02-28T03:00:08;7.25;;;1.80;;
49153;SDS011;49455;52.252;9.124;2023-02-28T03:05:20;2.47;;;1.23;;
49153;SDS011;49455;52.252;9.124;2023-02-28T03:10:36;3.75;;;1.65;;
49153;SDS011;49455;52.252;9.124;2023-02-28T03:15:49;3.03;;;1.40;;
49153;SDS011;49455;52.252;9.124;2023-02-28T03:20:57;7.93;;;3.57;;
49153;SDS011;49455;52.252;9.124;2023-02-28T03:26:13;4.28;;;2.20;;
49153;SDS011;49455;52.252;9.124;2023-02-28T03:31:50;3.05;;;1.75;;
49153;SDS011;49455;52.252;9.124;2023-02-28T03:36:47;2.22;;;1.38;;
49153;SDS011;49455;52.252;9.124;2023-02-28T03:41:56;2.45;;;1.58;;
49153;SDS011;49455;52.252;9.124;2023-02-28T03:47:02;2.42;;;1.67;;
49153;SDS011;49455;52.252;9.124;2023-02-28T03:52:07;8.00;;;2.88;;
49153;SDS011;49455;52.252;9.124;2023-02-28T03:57:12;9.80;;;3.60;;
49153;SDS011;49455;52.252;9.124;2023-02-28T04:02:20;6.38;;;2.78;;
49153;SDS011;49455;52.252;9.124;2023-02-28T04:07:20;3.77;;;1.80;;
49153;SDS011;49455;52.252;9.124;2023-02-28T04:12:21;4.50;;;1.77;;
49153;SDS011;49455;52.252;9.124;2023-02-28T04:17:21;6.40;;;2.23;;
49153;SDS011;49455;52.252;9.124;2023-02-28T04:22:22;3.23;;;2.00;;
49153;SDS011;49455;52.252;9.124;2023-02-28T04:27:22;6.67;;;2.17;;
49153;SDS011;49455;52.252;9.124;2023-02-28T04:32:23;7.67;;;2.73;;
49153;SDS011;49455;52.252;9.124;2023-02-28T04:37:23;5.73;;;2.50;;
49153;SDS011;49455;52.252;9.124;2023-02-28T04:42:23;9.03;;;3.77;;
49153;SDS011;49455;52.252;9.124;2023-02-28T04:47:24;35.90;;;14.83;;
49153;SDS011;49455;52.252;9.124;2023-02-28T04:52:24;21.57;;;9.80;;
49153;SDS011;49455;52.252;9.124;2023-02-28T04:57:24;18.53;;;8.13;;
49153;SDS011;49455;52.252;9.124;2023-02-28T05:02:25;43.57;;;16.60;;
49153;SDS011;49455;52.252;9.124;2023-02-28T05:07:25;35.67;;;13.53;;
49153;SDS011;49455;52.252;9.124;2023-02-28T05:12:26;34.93;;;14.00;;
49153;SDS011;49455;52.252;9.124;2023-02-28T05:17:26;38.80;;;12.73;;
49153;SDS011;49455;52.252;9.124;2023-02-28T05:22:26;14.73;;;6.10;;
49153;SDS011;49455;52.252;9.124;2023-02-28T05:27:27;14.37;;;5.67;;
49153;SDS011;49455;52.252;9.124;2023-02-28T05:32:27;19.53;;;7.50;;
49153;SDS011;49455;52.252;9.124;2023-02-28T05:37:27;19.40;;;5.97;;
49153;SDS011;49455;52.252;9.124;2023-02-28T05:42:28;11.17;;;3.27;;
49153;SDS011;49455;52.252;9.124;2023-02-28T05:47:28;8.97;;;2.70;;
49153;SDS011;49455;52.252;9.124;2023-02-28T05:52:29;6.93;;;2.87;;
49153;SDS011;49455;52.252;9.124;2023-02-28T05:57:29;12.10;;;4.27;;
49153;SDS011;49455;52.252;9.124;2023-02-28T06:02:30;9.37;;;3.60;;
49153;SDS011;49455;52.252;9.124;2023-02-28T06:07:30;10.67;;;4.70;;
49153;SDS011;49455;52.252;9.124;2023-02-28T06:12:30;7.57;;;1.90;;
49153;SDS011;49455;52.252;9.124;2023-02-28T06:17:31;1.73;;;1.10;;
49153;SDS011;49455;52.252;9.124;2023-02-28T06:22:31;1.97;;;1.10;;
49153;SDS011;49455;52.252;9.124;2023-02-28T06:27:32;3.43;;;1.17;;
49153;SDS011;49455;52.252;9.124;2023-02-28T06:32:34;3.40;;;1.00;;
49153;SDS011;49455;52.252;9.124;2023-02-28T06:37:34;4.30;;;2.00;;
49153;SDS011;49455;52.252;9.124;2023-02-28T06:42:34;3.90;;;1.50;;
49153;SDS011;49455;52.252;9.124;2023-02-28T06:47:35;3.83;;;1.50;;
49153;SDS011;49455;52.252;9.124;2023-02-28T06:52:36;2.83;;;1.20;;
49153;SDS011;49455;52.252;9.124;2023-02-28T06:57:37;3.73;;;1.13;;
49153;SDS011;49455;52.252;9.124;2023-02-28T07:02:37;2.60;;;1.00;;
49153;SDS011;49455;52.252;9.124;2023-02-28T07:07:38;3.30;;;1.20;;
49153;SDS011;49455;52.252;9.124;2023-02-28T07:12:39;3.50;;;1.30;;
49153;SDS011;49455;52.252;9.124;2023-02-28T07:17:39;2.87;;;1.20;;
49153;SDS011;49455;52.252;9.124;2023-02-28T07:22:40;4.53;;;1.43;;
49153;SDS011;49455;52.252;9.124;2023-02-28T07:27:40;2.83;;;1.40;;
49153;SDS011;49455;52.252;9.124;2023-02-28T07:32:41;6.33;;;3.20;;
49153;SDS011;49455;52.252;9.124;2023-02-28T07:37:42;4.27;;;2.67;;
49153;SDS011;49455;52.252;9.124;2023-02-28T07:42:43;6.70;;;3.00;;
49153;SDS011;49455;52.252;9.124;2023-02-28T07:47:44;5.82;;;1.55;;
49153;SDS011;49455;52.252;9.124;2023-02-28T07:52:44;2.97;;;1.57;;
49153;SDS011;49455;52.252;9.124;2023-02-28T07:57:45;6.53;;;2.67;;
49153;SDS011;49455;52.252;9.124;2023-02-28T08:02:45;19.47;;;6.17;;
49153;SDS011;49455;52.252;9.124;2023-02-28T08:07:45;40.87;;;17.10;;
49153;SDS011;49455;52.252;9.124;2023-02-28T08:12:46;16.30;;;7.90;;
49153;SDS011;49455;52.252;9.124;2023-02-28T08:17:46;15.37;;;5.83;;
49153;SDS011;49455;52.252;9.124;2023-02-28T08:22:47;19.63;;;6.80;;
49153;SDS011;49455;52.252;9.124;2023-02-28T08:27:50;11.33;;;4.60;;
49153;SDS011;49455;52.252;9.124;2023-02-28T08:32:51;8.43;;;4.28;;
49153;SDS011;49455;52.252;9.124;2023-02-28T08:37:52;7.03;;;3.90;;
49153;SDS011;49455;52.252;9.124;2023-02-28T08:42:52;7.30;;;4.10;;
49153;SDS011;49455;52.252;9.124;2023-02-28T08:47:54;7.00;;;4.33;;
49153;SDS011;49455;52.252;9.124;2023-02-28T08:52:54;8.25;;;4.75;;
49153;SDS011;49455;52.252;9.124;2023-02-28T08:57:55;18.67;;;9.63;;
49153;SDS011;49455;52.252;9.124;2023-02-28T09:02:55;9.63;;;4.90;;
49153;SDS011;49455;52.252;9.124;2023-02-28T09:07:55;8.07;;;5.13;;
49153;SDS011;49455;52.252;9.124;2023-02-28T09:12:56;9.60;;;5.73;;
49153;SDS011;49455;52.252;9.124;2023-02-28T09:17:56;7.97;;;4.37;;
49153;SDS011;49455;52.252;9.124;2023-02-28T09:22:56;6.83;;;2.37;;
49153;SDS011;49455;52.252;9.124;2023-02-28T09:27:57;5.10;;;2.40;;
49153;SDS011;49455;52.252;9.124;2023-02-28T09:32:57;6.97;;;3.40;;
49153;SDS011;49455;52.252;9.124;2023-02-28T09:37:59;4.10;;;2.72;;
49153;SDS011;49455;52.252;9.124;2023-02-28T09:42:59;6.00;;;2.20;;
49153;SDS011;49455;52.252;9.124;2023-02-28T09:48:01;3.50;;;2.00;;
49153;SDS011;49455;52.252;9.124;2023-02-28T09:53:15;5.70;;;2.13;;
49153;SDS011;49455;52.252;9.124;2023-02-28T09:58:58;5.13;;;2.00;;
49153;SDS011;49455;52.252;9.124;2023-02-28T10:03:59;4.30;;;2.30;;
49153;SDS011;49455;52.252;9.124;2023-02-28T10:09:46;9.60;;;2.47;;
49153;SDS011;49455;52.252;9.124;2023-02-28T10:14:32;3.50;;;1.90;;
49153;SDS011;49455;52.252;9.124;2023-02-28T10:24:50;3.65;;;1.88;;
49153;SDS011;49455;52.252;9.124;2023-02-28T10:29:53;2.90;;;1.52;;
49153;SDS011;49455;52.252;9.124;2023-02-28T10:45:18;3.80;;;1.90;;
49153;SDS011;49455;52.252;9.124;2023-02-28T10:50:29;5.43;;;2.63;;
49153;SDS011;49455;52.252;9.124;2023-02-28T10:55:34;2.70;;;1.10;;
49153;SDS011;49455;52.252;9.124;2023-02-28T11:00:35;3.50;;;1.60;;
49153;SDS011;49455;52.252;9.124;2023-02-28T11:05:36;3.80;;;1.43;;
49153;SDS011;49455;52.252;9.124;2023-02-28T11:10:36;3.77;;;1.83;;
49153;SDS011;49455;52.252;9.124;2023-02-28T11:15:37;3.57;;;1.43;;
49153;SDS011;49455;52.252;9.124;2023-02-28T11:20:37;4.20;;;1.10;;
49153;SDS011;49455;52.252;9.124;2023-02-28T11:25:39;3.35;;;1.40;;
49153;SDS011;49455;52.252;9.124;2023-02-28T11:30:40;3.57;;;1.30;;
49153;SDS011;49455;52.252;9.124;2023-02-28T11:35:41;2.50;;;1.80;;
49153;SDS011;49455;52.252;9.124;2023-02-28T11:51:11;4.25;;;1.88;;
49153;SDS011;49455;52.252;9.124;2023-02-28T12:07:14;2.30;;;1.90;;
49153;SDS011;49455;52.252;9.124;2023-02-28T12:18:10;4.63;;;2.83;;
49153;SDS011;49455;52.252;9.124;2023-02-28T12:28:38;5.90;;;2.65;;
49153;SDS011;49455;52.252;9.124;2023-02-28T12:33:44;4.32;;;2.60;;
49153;SDS011;49455;52.252;9.124;2023-02-28T12:43:52;3.17;;;2.35;;
49153;SDS011;49455;52.252;9.124;2023-02-28T12:49:04;7.90;;;2.90;;
49153;SDS011;49455;52.252;9.124;2023-02-28T12:54:10;5.15;;;2.67;;
49153;SDS011;49455;52.252;9.124;2023-02-28T12:59:45;4.72;;;2.40;;
49153;SDS011;49455;52.252;9.124;2023-02-28T13:10:08;5.32;;;2.90;;
49153;SDS011;49455;52.252;9.124;2023-02-28T13:20:20;3.67;;;2.30;;
49153;SDS011;49455;52.252;9.124;2023-02-28T13:51:49;3.63;;;2.10;;
49153;SDS011;49455;52.252;9.124;2023-02-28T14:02:21;4.65;;;2.25;;
49153;SDS011;49455;52.252;9.124;2023-02-28T14:07:27;7.53;;;2.45;;
49153;SDS011;49455;52.252;9.124;2023-02-28T14:17:59;5.03;;;2.97;;
49153;SDS011;49455;52.252;9.124;2023-02-28T14:23:17;8.20;;;4.03;;
49153;SDS011;49455;52.252;9.124;2023-02-28T14:28:43;6.45;;;2.78;;
49153;SDS011;49455;52.252;9.124;2023-02-28T14:34:12;11.25;;;5.82;;
49153;SDS011;49455;52.252;9.124;2023-02-28T14:39:18;5.45;;;3.20;;
49153;SDS011;49455;52.252;9.124;2023-02-28T14:44:26;30.88;;;12.55;;
49153;SDS011;49455;52.252;9.124;2023-02-28T14:49:28;20.75;;;14.75;;
49153;SDS011;49455;52.252;9.124;2023-02-28T14:54:35;5.53;;;2.60;;
49153;SDS011;49455;52.252;9.124;2023-02-28T14:59:37;5.85;;;3.35;;
49153;SDS011;49455;52.252;9.124;2023-02-28T15:04:37;5.90;;;3.70;;
49153;SDS011;49455;52.252;9.124;2023-02-28T15:09:37;6.32;;;3.28;;
49153;SDS011;49455;52.252;9.124;2023-02-28T15:14:38;5.75;;;2.88;;
49153;SDS011;49455;52.252;9.124;2023-02-28T15:19:42;4.50;;;3.13;;
49153;SDS011;49455;52.252;9.124;2023-02-28T15:24:49;6.82;;;2.95;;
49153;SDS011;49455;52.252;9.124;2023-02-28T15:29:57;5.97;;;3.22;;
49153;SDS011;49455;52.252;9.124;2023-02-28T15:34:59;7.65;;;4.72;;
49153;SDS011;49455;52.252;9.124;2023-02-28T15:45:28;6.95;;;3.90;;
49153;SDS011;49455;52.252;9.124;2023-02-28T15:50:41;5.05;;;3.10;;
49153;SDS011;49455;52.252;9.124;2023-02-28T15:55:41;7.97;;;3.15;;
49153;SDS011;49455;52.252;9.124;2023-02-28T16:00:43;8.50;;;3.45;;
49153;SDS011;49455;52.252;9.124;2023-02-28T16:05:43;5.85;;;3.25;;
49153;SDS011;49455;52.252;9.124;2023-02-28T16:10:44;5.03;;;3.03;;
49153;SDS011;49455;52.252;9.124;2023-02-28T16:15:44;6.35;;;3.13;;
49153;SDS011;49455;52.252;9.124;2023-02-28T16:20:45;6.07;;;3.55;;
49153;SDS011;49455;52.252;9.124;2023-02-28T16:25:45;6.63;;;3.80;;
49153;SDS011;49455;52.252;9.124;2023-02-28T16:30:46;7.35;;;3.60;;
49153;SDS011;49455;52.252;9.124;2023-02-28T16:35:46;5.57;;;3.03;;
49153;SDS011;49455;52.252;9.124;2023-02-28T16:40:47;5.22;;;3.50;;
49153;SDS011;49455;52.252;9.124;2023-02-28T16:45:54;8.65;;;5.55;;
49153;SDS011;49455;52.252;9.124;2023-02-28T16:50:56;8.40;;;4.93;;
49153;SDS011;49455;52.252;9.124;2023-02-28T16:55:56;7.38;;;4.70;;
49153;SDS011;49455;52.252;9.124;2023-02-28T17:00:56;8.25;;;5.50;;
49153;SDS011;49455;52.252;9.124;2023-02-28T17:05:57;7.75;;;3.97;;
49153;SDS011;49455;52.252;9.124;2023-02-28T17:11:00;8.95;;;4.18;;
49153;SDS011;49455;52.252;9.124;2023-02-28T17:16:01;5.95;;;3.17;;
49153;SDS011;49455;52.252;9.124;2023-02-28T17:21:02;6.17;;;2.97;;
49153;SDS011;49455;52.252;9.124;2023-02-28T17:26:02;9.10;;;3.75;;
49153;SDS011;49455;52.252;9.124;2023-02-28T17:31:03;7.20;;;2.80;;
49153;SDS011;49455;52.252;9.124;2023-02-28T17:36:03;8.80;;;3.75;;
49153;SDS011;49455;52.252;9.124;2023-02-28T17:41:04;5.53;;;3.50;;
49153;SDS011;49455;52.252;9.124;2023-02-28T17:46:05;5.55;;;3.25;;
49153;SDS011;49455;52.252;9.124;2023-02-28T17:51:10;6.35;;;3.55;;
49153;SDS011;49455;52.252;9.124;2023-02-28T17:56:14;5.60;;;3.72;;
49153;SDS011;49455;52.252;9.124;2023-02-28T18:01:17;7.93;;;3.67;;
49153;SDS011;49455;52.252;9.124;2023-02-28T18:06:22;8.60;;;3.40;;
49153;SDS011;49455;52.252;9.124;2023-02-28T18:11:28;7.28;;;3.80;;
49153;SDS011;49455;52.252;9.124;2023-02-28T18:16:29;9.82;;;4.45;;
49153;SDS011;49455;52.252;9.124;2023-02-28T18:21:29;11.73;;;4.73;;
49153;SDS011;49455;52.252;9.124;2023-02-28T18:26:30;12.47;;;5.50;;
49153;SDS011;49455;52.252;9.124;2023-02-28T18:31:30;10.83;;;5.00;;
49153;SDS011;49455;52.252;9.124;2023-02-28T18:36:31;12.63;;;5.97;;
49153;SDS011;49455;52.252;9.124;2023-02-28T18:41:31;12.10;;;6.10;;
49153;SDS011;49455;52.252;9.124;2023-02-28T18:46:32;8.03;;;4.10;;
49153;SDS011;49455;52.252;9.124;2023-02-28T18:51:32;8.30;;;4.73;;
49153;SDS011;49455;52.252;9.124;2023-02-28T18:56:32;9.93;;;4.30;;
49153;SDS011;49455;52.252;9.124;2023-02-28T19:01:33;11.73;;;4.77;;
49153;SDS011;49455;52.252;9.124;2023-02-28T19:06:33;8.27;;;5.27;;
49153;SDS011;49455;52.252;9.124;2023-02-28T19:11:34;11.03;;;5.27;;
49153;SDS011;49455;52.252;9.124;2023-02-28T19:16:35;10.17;;;4.47;;
49153;SDS011;49455;52.252;9.124;2023-02-28T19:21:35;13.07;;;6.07;;
49153;SDS011;49455;52.252;9.124;2023-02-28T19:26:35;16.47;;;7.70;;
49153;SDS011;49455;52.252;9.124;2023-02-28T19:31:36;10.27;;;6.37;;
49153;SDS011;49455;52.252;9.124;2023-02-28T19:36:36;7.73;;;5.80;;
49153;SDS011;49455;52.252;9.124;2023-02-28T19:41:36;11.67;;;6.00;;
49153;SDS011;49455;52.252;9.124;2023-02-28T19:46:37;6.93;;;4.40;;
49153;SDS011;49455;52.252;9.124;2023-02-28T19:51:37;7.73;;;4.63;;
49153;SDS011;49455;52.252;9.124;2023-02-28T19:56:38;8.97;;;4.33;;
49153;SDS011;49455;52.252;9.124;2023-02-28T20:01:38;10.20;;;4.00;;
49153;SDS011;49455;52.252;9.124;2023-02-28T20:06:38;6.33;;;4.20;;
49153;SDS011;49455;52.252;9.124;2023-02-28T20:11:39;6.47;;;4.07;;
49153;SDS011;49455;52.252;9.124;2023-02-28T20:16:39;6.80;;;4.00;;
49153;SDS011;49455;52.252;9.124;2023-02-28T20:21:40;7.37;;;4.20;;
49153;SDS011;49455;52.252;9.124;2023-02-28T20:26:40;7.67;;;4.00;;
49153;SDS011;49455;52.252;9.124;2023-02-28T20:31:41;8.80;;;4.27;;
49153;SDS011;49455;52.252;9.124;2023-02-28T20:36:41;8.97;;;4.23;;
49153;SDS011;49455;52.252;9.124;2023-02-28T20:41:41;7.90;;;4.03;;
49153;SDS011;49455;52.252;9.124;2023-02-28T20:46:42;5.73;;;3.33;;
49153;SDS011;49455;52.252;9.124;2023-02-28T20:51:42;8.23;;;5.53;;
49153;SDS011;49455;52.252;9.124;2023-02-28T20:56:43;8.00;;;4.63;;
49153;SDS011;49455;52.252;9.124;2023-02-28T21:01:43;8.47;;;4.70;;
49153;SDS011;49455;52.252;9.124;2023-02-28T21:06:43;9.23;;;4.40;;
49153;SDS011;49455;52.252;9.124;2023-02-28T21:11:44;8.70;;;4.67;;
49153;SDS011;49455;52.252;9.124;2023-02-28T21:16:44;7.10;;;5.03;;
49153;SDS011;49455;52.252;9.124;2023-02-28T21:21:45;7.37;;;4.50;;
49153;SDS011;49455;52.252;9.124;2023-02-28T21:26:45;8.83;;;5.03;;
49153;SDS011;49455;52.252;9.124;2023-02-28T21:31:48;12.03;;;5.47;;
49153;SDS011;49455;52.252;9.124;2023-02-28T21:36:49;12.57;;;5.75;;
49153;SDS011;49455;52.252;9.124;2023-02-28T21:41:50;10.73;;;5.37;;
49153;SDS011;49455;52.252;9.124;2023-02-28T21:51:52;15.43;;;5.95;;
49153;SDS011;49455;52.252;9.124;2023-02-28T21:56:53;11.77;;;5.80;;
49153;SDS011;49455;52.252;9.124;2023-02-28T22:01:55;9.95;;;5.90;;
49153;SDS011;49455;52.252;9.124;2023-02-28T22:06:55;9.63;;;6.13;;
49153;SDS011;49455;52.252;9.124;2023-02-28T22:11:56;8.70;;;5.63;;
49153;SDS011;49455;52.252;9.124;2023-02-28T22:16:57;8.90;;;5.30;;
49153;SDS011;49455;52.252;9.124;2023-02-28T22:21:57;10.83;;;5.50;;
49153;SDS011;49455;52.252;9.124;2023-02-28T22:26:58;10.33;;;5.77;;
49153;SDS011;49455;52.252;9.124;2023-02-28T22:31:58;9.97;;;5.03;;
49153;SDS011;49455;52.252;9.124;2023-02-28T22:36:58;9.67;;;5.40;;
49153;SDS011;49455;52.252;9.124;2023-02-28T22:41:59;9.53;;;5.03;;
49153;SDS011;49455;52.252;9.124;2023-02-28T22:46:59;9.00;;;5.30;;
49153;SDS011;49455;52.252;9.124;2023-02-28T22:52:00;15.53;;;5.57;;
49153;SDS011;49455;52.252;9.124;2023-02-28T22:57:00;10.30;;;5.23;;
49153;SDS011;49455;52.252;9.124;2023-02-28T23:02:00;9.40;;;5.13;;
49153;SDS011;49455;52.252;9.124;2023-02-28T23:07:01;11.77;;;5.50;;
49153;SDS011;49455;52.252;9.124;2023-02-28T23:12:01;7.73;;;5.37;;
49153;SDS011;49455;52.252;9.124;2023-02-28T23:17:02;8.00;;;5.27;;
49153;SDS011;49455;52.252;9.124;2023-02-28T23:22:02;8.43;;;5.47;;
49153;SDS011;49455;52.252;9.124;2023-02-28T23:27:03;10.85;;;5.22;;
49153;SDS011;49455;52.252;9.124;2023-02-28T23:32:04;7.95;;;4.22;;
49153;SDS011;49455;52.252;9.124;2023-02-28T23:37:08;10.38;;;4.93;;
49153;SDS011;49455;52.252;9.124;2023-02-28T23:42:08;10.93;;;5.20;;
49153;SDS011;49455;52.252;9.124;2023-02-28T23:47:08;12.63;;;5.07;;
49153;SDS011;49455;52.252;9.124;2023-02-28T23:52:09;8.83;;;5.03;;
49153;SDS011;49455;52.252;9.124;2023-02-28T23:57:09;10.10;;;5.83;;
